sensor_id;sensor_type;location;lat;lon;timestamp;P1;durP1;ratioP1;P2;durP2;ratioP2
14209;SDS011;7188;56.070;12.698;2023-05-10T00:01:23;2.87;;;1.80;;
14209;SDS011;7188;56.070;12.698;2023-05-10T00:03:49;2.70;;;2.43;;
14209;SDS011;7188;56.070;12.698;2023-05-10T00:06:15;4.23;;;2.07;;
14209;SDS011;7188;56.070;12.698;2023-05-10T00:08:41;3.90;;;2.33;;
14209;SDS011;7188;56.070;12.698;2023-05-10T00:11:06;2.00;;;1.80;;
14209;SDS011;7188;56.070;12.698;2023-05-10T00:13:32;2.03;;;1.93;;
14209;SDS011;7188;56.070;12.698;2023-05-10T00:15:58;2.77;;;1.73;;
14209;SDS011;7188;56.070;12.698;2023-05-10T00:18:23;4.33;;;2.20;;
14209;SDS011;7188;56.070;12.698;2023-05-10T00:20:49;2.50;;;2.30;;
14209;SDS011;7188;56.070;12.698;2023-05-10T00:23:15;2.67;;;1.73;;
14209;SDS011;7188;56.070;12.698;2023-05-10T00:25:40;3.47;;;2.27;;
14209;SDS011;7188;56.070;12.698;2023-05-10T00:28:06;3.23;;;2.00;;
14209;SDS011;7188;56.070;12.698;2023-05-10T00:30:32;2.97;;;1.87;;
14209;SDS011;7188;56.070;12.698;2023-05-10T00:32:57;3.40;;;2.33;;
14209;SDS011;7188;56.070;12.698;2023-05-10T00:35:23;3.60;;;2.03;;
14209;SDS011;7188;56.070;12.698;2023-05-10T00:37:49;3.40;;;1.77;;
14209;SDS011;7188;56.070;12.698;2023-05-10T00:40:14;2.37;;;2.17;;
14209;SDS011;7188;56.070;12.698;2023-05-10T00:42:40;2.30;;;1.77;;
14209;SDS011;7188;56.070;12.698;2023-05-10T00:45:06;2.27;;;2.10;;
14209;SDS011;7188;56.070;12.698;2023-05-10T00:47:32;5.00;;;2.40;;
14209;SDS011;7188;56.070;12.698;2023-05-10T00:49:58;3.73;;;2.17;;
14209;SDS011;7188;56.070;12.698;2023-05-10T00:52:25;2.73;;;2.23;;
14209;SDS011;7188;56.070;12.698;2023-05-10T00:55:07;4.27;;;2.03;;
14209;SDS011;7188;56.070;12.698;2023-05-10T00:57:35;2.20;;;1.83;;
14209;SDS011;7188;56.070;12.698;2023-05-10T01:00:01;3.67;;;2.03;;
14209;SDS011;7188;56.070;12.698;2023-05-10T01:02:27;3.33;;;2.13;;
14209;SDS011;7188;56.070;12.698;2023-05-10T01:04:53;3.80;;;2.07;;
14209;SDS011;7188;56.070;12.698;2023-05-10T01:07:19;3.60;;;2.40;;
14209;SDS011;7188;56.070;12.698;2023-05-10T01:09:45;3.70;;;2.23;;
14209;SDS011;7188;56.070;12.698;2023-05-10T01:12:11;4.00;;;2.57;;
14209;SDS011;7188;56.070;12.698;2023-05-10T01:14:37;2.73;;;2.20;;
14209;SDS011;7188;56.070;12.698;2023-05-10T01:17:03;4.50;;;2.50;;
14209;SDS011;7188;56.070;12.698;2023-05-10T01:19:30;4.57;;;2.37;;
14209;SDS011;7188;56.070;12.698;2023-05-10T01:30:47;1.93;;;1.80;;
14209;SDS011;7188;56.070;12.698;2023-05-10T01:36:43;4.70;;;2.80;;
14209;SDS011;7188;56.070;12.698;2023-05-10T01:39:24;3.57;;;2.77;;
14209;SDS011;7188;56.070;12.698;2023-05-10T01:41:57;4.33;;;3.13;;
14209;SDS011;7188;56.070;12.698;2023-05-10T01:47:09;4.53;;;2.07;;
14209;SDS011;7188;56.070;12.698;2023-05-10T01:49:41;4.33;;;2.23;;
14209;SDS011;7188;56.070;12.698;2023-05-10T01:52:15;5.20;;;2.33;;
14209;SDS011;7188;56.070;12.698;2023-05-10T01:54:59;3.13;;;2.83;;
14209;SDS011;7188;56.070;12.698;2023-05-10T01:57:28;2.57;;;2.30;;
14209;SDS011;7188;56.070;12.698;2023-05-10T01:59:59;3.97;;;2.27;;
14209;SDS011;7188;56.070;12.698;2023-05-10T02:02:29;6.37;;;2.77;;
14209;SDS011;7188;56.070;12.698;2023-05-10T02:05:02;4.90;;;2.87;;
14209;SDS011;7188;56.070;12.698;2023-05-10T02:07:30;3.33;;;3.00;;
14209;SDS011;7188;56.070;12.698;2023-05-10T02:09:58;2.30;;;2.10;;
14209;SDS011;7188;56.070;12.698;2023-05-10T02:12:25;4.57;;;2.60;;
14209;SDS011;7188;56.070;12.698;2023-05-10T02:14:53;4.23;;;2.70;;
14209;SDS011;7188;56.070;12.698;2023-05-10T02:17:21;5.57;;;2.50;;
14209;SDS011;7188;56.070;12.698;2023-05-10T02:19:48;3.37;;;2.10;;
14209;SDS011;7188;56.070;12.698;2023-05-10T02:22:16;6.67;;;2.30;;
14209;SDS011;7188;56.070;12.698;2023-05-10T02:24:43;6.00;;;2.47;;
14209;SDS011;7188;56.070;12.698;2023-05-10T02:27:10;4.37;;;2.40;;
14209;SDS011;7188;56.070;12.698;2023-05-10T02:29:37;3.90;;;2.70;;
14209;SDS011;7188;56.070;12.698;2023-05-10T02:32:03;3.60;;;2.27;;
14209;SDS011;7188;56.070;12.698;2023-05-10T02:34:29;3.77;;;2.23;;
14209;SDS011;7188;56.070;12.698;2023-05-10T02:36:56;4.50;;;2.40;;
14209;SDS011;7188;56.070;12.698;2023-05-10T02:39:23;5.37;;;2.33;;
14209;SDS011;7188;56.070;12.698;2023-05-10T02:41:51;2.77;;;2.30;;
14209;SDS011;7188;56.070;12.698;2023-05-10T02:44:21;4.90;;;2.50;;
14209;SDS011;7188;56.070;12.698;2023-05-10T02:46:48;3.03;;;2.57;;
14209;SDS011;7188;56.070;12.698;2023-05-10T02:49:14;2.60;;;2.37;;
14209;SDS011;7188;56.070;12.698;2023-05-10T02:51:41;3.90;;;2.53;;
14209;SDS011;7188;56.070;12.698;2023-05-10T02:54:15;4.33;;;2.40;;
14209;SDS011;7188;56.070;12.698;2023-05-10T02:56:52;2.73;;;2.07;;
14209;SDS011;7188;56.070;12.698;2023-05-10T02:59:22;3.17;;;2.10;;
14209;SDS011;7188;56.070;12.698;2023-05-10T03:01:47;14.00;;;2.80;;
14209;SDS011;7188;56.070;12.698;2023-05-10T03:04:22;3.57;;;2.53;;
14209;SDS011;7188;56.070;12.698;2023-05-10T03:06:48;5.87;;;2.67;;
14209;SDS011;7188;56.070;12.698;2023-05-10T03:09:13;7.23;;;2.60;;
14209;SDS011;7188;56.070;12.698;2023-05-10T03:11:48;4.03;;;2.47;;
14209;SDS011;7188;56.070;12.698;2023-05-10T03:17:41;3.57;;;2.20;;
14209;SDS011;7188;56.070;12.698;2023-05-10T03:20:48;4.13;;;2.40;;
14209;SDS011;7188;56.070;12.698;2023-05-10T03:25:48;4.57;;;2.70;;
14209;SDS011;7188;56.070;12.698;2023-05-10T03:28:16;4.50;;;2.73;;
14209;SDS011;7188;56.070;12.698;2023-05-10T03:30:43;3.40;;;1.97;;
14209;SDS011;7188;56.070;12.698;2023-05-10T03:35:55;5.33;;;2.43;;
14209;SDS011;7188;56.070;12.698;2023-05-10T03:38:21;6.50;;;3.00;;
14209;SDS011;7188;56.070;12.698;2023-05-10T03:40:47;3.50;;;3.13;;
14209;SDS011;7188;56.070;12.698;2023-05-10T03:43:12;3.73;;;2.10;;
14209;SDS011;7188;56.070;12.698;2023-05-10T03:45:38;3.13;;;2.73;;
14209;SDS011;7188;56.070;12.698;2023-05-10T03:48:03;7.07;;;2.57;;
14209;SDS011;7188;56.070;12.698;2023-05-10T03:50:29;4.70;;;2.57;;
14209;SDS011;7188;56.070;12.698;2023-05-10T03:52:55;3.20;;;2.63;;
14209;SDS011;7188;56.070;12.698;2023-05-10T03:55:21;5.30;;;3.10;;
14209;SDS011;7188;56.070;12.698;2023-05-10T03:57:47;5.20;;;2.50;;
14209;SDS011;7188;56.070;12.698;2023-05-10T04:00:14;5.17;;;2.67;;
14209;SDS011;7188;56.070;12.698;2023-05-10T04:02:40;2.83;;;2.63;;
14209;SDS011;7188;56.070;12.698;2023-05-10T04:05:06;3.10;;;2.60;;
14209;SDS011;7188;56.070;12.698;2023-05-10T04:07:32;2.57;;;2.23;;
14209;SDS011;7188;56.070;12.698;2023-05-10T04:09:58;2.50;;;2.23;;
14209;SDS011;7188;56.070;12.698;2023-05-10T04:12:23;3.70;;;2.67;;
14209;SDS011;7188;56.070;12.698;2023-05-10T04:14:49;7.13;;;3.00;;
14209;SDS011;7188;56.070;12.698;2023-05-10T04:17:16;4.93;;;2.90;;
14209;SDS011;7188;56.070;12.698;2023-05-10T04:19:41;4.27;;;2.73;;
14209;SDS011;7188;56.070;12.698;2023-05-10T04:22:07;3.23;;;2.00;;
14209;SDS011;7188;56.070;12.698;2023-05-10T04:24:33;4.60;;;2.63;;
14209;SDS011;7188;56.070;12.698;2023-05-10T04:26:58;7.07;;;2.97;;
14209;SDS011;7188;56.070;12.698;2023-05-10T04:29:24;4.27;;;2.30;;
14209;SDS011;7188;56.070;12.698;2023-05-10T04:31:50;5.53;;;2.80;;
14209;SDS011;7188;56.070;12.698;2023-05-10T04:34:15;4.73;;;2.60;;
14209;SDS011;7188;56.070;12.698;2023-05-10T04:36:41;4.93;;;2.57;;
14209;SDS011;7188;56.070;12.698;2023-05-10T04:39:07;3.97;;;2.57;;
14209;SDS011;7188;56.070;12.698;2023-05-10T04:41:33;6.17;;;2.90;;
14209;SDS011;7188;56.070;12.698;2023-05-10T04:43:59;3.67;;;2.30;;
14209;SDS011;7188;56.070;12.698;2023-05-10T04:46:25;2.97;;;2.47;;
14209;SDS011;7188;56.070;12.698;2023-05-10T04:48:50;2.60;;;2.40;;
14209;SDS011;7188;56.070;12.698;2023-05-10T04:51:16;5.17;;;2.63;;
14209;SDS011;7188;56.070;12.698;2023-05-10T04:53:41;4.30;;;2.43;;
14209;SDS011;7188;56.070;12.698;2023-05-10T04:56:07;5.43;;;2.83;;
14209;SDS011;7188;56.070;12.698;2023-05-10T04:58:33;5.00;;;2.50;;
14209;SDS011;7188;56.070;12.698;2023-05-10T05:01:07;3.27;;;2.77;;
14209;SDS011;7188;56.070;12.698;2023-05-10T05:03:34;3.37;;;2.77;;
14209;SDS011;7188;56.070;12.698;2023-05-10T05:06:00;4.13;;;2.70;;
14209;SDS011;7188;56.070;12.698;2023-05-10T05:08:26;4.83;;;2.20;;
14209;SDS011;7188;56.070;12.698;2023-05-10T05:10:51;4.40;;;2.67;;
14209;SDS011;7188;56.070;12.698;2023-05-10T05:13:17;8.47;;;2.83;;
14209;SDS011;7188;56.070;12.698;2023-05-10T05:15:46;4.53;;;2.90;;
14209;SDS011;7188;56.070;12.698;2023-05-10T05:18:12;5.60;;;2.30;;
14209;SDS011;7188;56.070;12.698;2023-05-10T05:20:38;5.93;;;2.60;;
14209;SDS011;7188;56.070;12.698;2023-05-10T05:23:03;5.47;;;2.77;;
14209;SDS011;7188;56.070;12.698;2023-05-10T05:25:29;5.33;;;2.97;;
14209;SDS011;7188;56.070;12.698;2023-05-10T05:27:54;5.43;;;2.80;;
14209;SDS011;7188;56.070;12.698;2023-05-10T05:30:20;5.77;;;3.00;;
14209;SDS011;7188;56.070;12.698;2023-05-10T05:32:46;3.80;;;2.63;;
14209;SDS011;7188;56.070;12.698;2023-05-10T05:35:14;4.53;;;3.03;;
14209;SDS011;7188;56.070;12.698;2023-05-10T05:37:40;5.23;;;2.53;;
14209;SDS011;7188;56.070;12.698;2023-05-10T05:40:05;3.53;;;2.77;;
14209;SDS011;7188;56.070;12.698;2023-05-10T05:42:31;6.87;;;3.00;;
14209;SDS011;7188;56.070;12.698;2023-05-10T05:44:57;3.70;;;2.67;;
14209;SDS011;7188;56.070;12.698;2023-05-10T05:47:23;4.47;;;2.60;;
14209;SDS011;7188;56.070;12.698;2023-05-10T05:49:48;5.13;;;2.93;;
14209;SDS011;7188;56.070;12.698;2023-05-10T05:52:14;6.73;;;2.63;;
14209;SDS011;7188;56.070;12.698;2023-05-10T05:54:40;4.83;;;3.00;;
14209;SDS011;7188;56.070;12.698;2023-05-10T05:57:05;5.00;;;2.80;;
14209;SDS011;7188;56.070;12.698;2023-05-10T05:59:31;8.43;;;3.23;;
14209;SDS011;7188;56.070;12.698;2023-05-10T06:01:56;7.40;;;3.20;;
14209;SDS011;7188;56.070;12.698;2023-05-10T06:04:22;3.60;;;3.00;;
14209;SDS011;7188;56.070;12.698;2023-05-10T06:06:48;4.13;;;2.83;;
14209;SDS011;7188;56.070;12.698;2023-05-10T06:09:13;6.20;;;2.93;;
14209;SDS011;7188;56.070;12.698;2023-05-10T06:11:39;5.93;;;2.77;;
14209;SDS011;7188;56.070;12.698;2023-05-10T06:14:05;3.07;;;2.77;;
14209;SDS011;7188;56.070;12.698;2023-05-10T06:16:32;4.27;;;2.33;;
14209;SDS011;7188;56.070;12.698;2023-05-10T06:18:58;8.73;;;2.57;;
14209;SDS011;7188;56.070;12.698;2023-05-10T06:21:24;4.00;;;2.83;;
14209;SDS011;7188;56.070;12.698;2023-05-10T06:23:50;3.20;;;2.50;;
14209;SDS011;7188;56.070;12.698;2023-05-10T06:26:16;2.60;;;2.27;;
14209;SDS011;7188;56.070;12.698;2023-05-10T06:28:41;6.07;;;2.93;;
14209;SDS011;7188;56.070;12.698;2023-05-10T06:31:07;5.53;;;2.80;;
14209;SDS011;7188;56.070;12.698;2023-05-10T06:33:33;5.50;;;3.27;;
14209;SDS011;7188;56.070;12.698;2023-05-10T06:35:59;6.73;;;2.50;;
14209;SDS011;7188;56.070;12.698;2023-05-10T06:38:24;6.33;;;2.67;;
14209;SDS011;7188;56.070;12.698;2023-05-10T06:40:50;7.87;;;2.53;;
14209;SDS011;7188;56.070;12.698;2023-05-10T06:43:16;4.43;;;2.93;;
14209;SDS011;7188;56.070;12.698;2023-05-10T06:45:42;4.83;;;3.00;;
14209;SDS011;7188;56.070;12.698;2023-05-10T06:48:07;4.40;;;2.50;;
14209;SDS011;7188;56.070;12.698;2023-05-10T06:50:33;5.57;;;2.80;;
14209;SDS011;7188;56.070;12.698;2023-05-10T06:52:59;4.23;;;2.80;;
14209;SDS011;7188;56.070;12.698;2023-05-10T06:55:25;5.67;;;2.80;;
14209;SDS011;7188;56.070;12.698;2023-05-10T06:57:51;3.07;;;2.70;;
14209;SDS011;7188;56.070;12.698;2023-05-10T07:00:17;8.43;;;2.60;;
14209;SDS011;7188;56.070;12.698;2023-05-10T07:02:44;6.33;;;3.33;;
14209;SDS011;7188;56.070;12.698;2023-05-10T07:05:09;3.73;;;2.43;;
14209;SDS011;7188;56.070;12.698;2023-05-10T07:07:35;4.03;;;3.10;;
14209;SDS011;7188;56.070;12.698;2023-05-10T07:10:01;6.00;;;2.73;;
14209;SDS011;7188;56.070;12.698;2023-05-10T07:12:27;5.83;;;2.80;;
14209;SDS011;7188;56.070;12.698;2023-05-10T07:14:53;3.67;;;3.17;;
14209;SDS011;7188;56.070;12.698;2023-05-10T07:17:19;7.80;;;3.30;;
14209;SDS011;7188;56.070;12.698;2023-05-10T07:19:44;4.87;;;2.83;;
14209;SDS011;7188;56.070;12.698;2023-05-10T07:24:58;5.60;;;2.47;;
14209;SDS011;7188;56.070;12.698;2023-05-10T07:27:23;3.40;;;2.87;;
14209;SDS011;7188;56.070;12.698;2023-05-10T07:29:49;4.70;;;2.63;;
14209;SDS011;7188;56.070;12.698;2023-05-10T07:32:15;4.87;;;2.67;;
14209;SDS011;7188;56.070;12.698;2023-05-10T07:34:41;5.07;;;2.37;;
14209;SDS011;7188;56.070;12.698;2023-05-10T07:37:06;5.63;;;2.90;;
14209;SDS011;7188;56.070;12.698;2023-05-10T07:39:32;2.87;;;2.53;;
14209;SDS011;7188;56.070;12.698;2023-05-10T07:41:58;5.80;;;2.70;;
14209;SDS011;7188;56.070;12.698;2023-05-10T07:44:23;7.63;;;2.60;;
14209;SDS011;7188;56.070;12.698;2023-05-10T07:46:49;4.93;;;2.93;;
14209;SDS011;7188;56.070;12.698;2023-05-10T07:49:15;6.28;;;2.95;;
14209;SDS011;7188;56.070;12.698;2023-05-10T07:51:41;11.25;;;3.10;;
14209;SDS011;7188;56.070;12.698;2023-05-10T07:54:07;2.93;;;2.17;;
14209;SDS011;7188;56.070;12.698;2023-05-10T07:56:33;5.38;;;2.28;;
14209;SDS011;7188;56.070;12.698;2023-05-10T07:58:59;2.43;;;2.03;;
14209;SDS011;7188;56.070;12.698;2023-05-10T08:01:26;5.67;;;2.70;;
14209;SDS011;7188;56.070;12.698;2023-05-10T08:03:55;3.10;;;2.17;;
14209;SDS011;7188;56.070;12.698;2023-05-10T08:06:20;4.47;;;2.70;;
14209;SDS011;7188;56.070;12.698;2023-05-10T08:08:46;9.55;;;3.00;;
14209;SDS011;7188;56.070;12.698;2023-05-10T08:11:15;3.93;;;2.97;;
14209;SDS011;7188;56.070;12.698;2023-05-10T08:13:42;3.70;;;2.50;;
14209;SDS011;7188;56.070;12.698;2023-05-10T08:16:08;3.87;;;2.97;;
14209;SDS011;7188;56.070;12.698;2023-05-10T08:18:34;7.22;;;3.17;;
14209;SDS011;7188;56.070;12.698;2023-05-10T08:21:00;4.70;;;2.53;;
14209;SDS011;7188;56.070;12.698;2023-05-10T08:23:25;9.52;;;2.88;;
14209;SDS011;7188;56.070;12.698;2023-05-10T08:25:51;7.18;;;2.42;;
14209;SDS011;7188;56.070;12.698;2023-05-10T08:28:16;2.90;;;2.60;;
14209;SDS011;7188;56.070;12.698;2023-05-10T08:30:42;3.87;;;2.77;;
14209;SDS011;7188;56.070;12.698;2023-05-10T08:33:08;4.75;;;2.60;;
14209;SDS011;7188;56.070;12.698;2023-05-10T08:35:33;4.30;;;2.40;;
14209;SDS011;7188;56.070;12.698;2023-05-10T08:38:00;5.68;;;2.78;;
14209;SDS011;7188;56.070;12.698;2023-05-10T08:40:26;6.97;;;2.80;;
14209;SDS011;7188;56.070;12.698;2023-05-10T08:43:05;5.15;;;2.28;;
14209;SDS011;7188;56.070;12.698;2023-05-10T08:45:38;4.97;;;2.30;;
14209;SDS011;7188;56.070;12.698;2023-05-10T08:48:08;6.90;;;2.45;;
14209;SDS011;7188;56.070;12.698;2023-05-10T08:50:38;4.32;;;2.67;;
14209;SDS011;7188;56.070;12.698;2023-05-10T08:53:06;6.53;;;2.63;;
14209;SDS011;7188;56.070;12.698;2023-05-10T08:55:36;2.97;;;2.67;;
14209;SDS011;7188;56.070;12.698;2023-05-10T08:58:04;3.60;;;2.40;;
14209;SDS011;7188;56.070;12.698;2023-05-10T09:00:30;3.75;;;2.80;;
14209;SDS011;7188;56.070;12.698;2023-05-10T09:02:57;4.47;;;2.95;;
14209;SDS011;7188;56.070;12.698;2023-05-10T09:05:23;2.88;;;2.22;;
14209;SDS011;7188;56.070;12.698;2023-05-10T09:07:49;6.25;;;2.50;;
14209;SDS011;7188;56.070;12.698;2023-05-10T09:10:15;4.60;;;2.42;;
14209;SDS011;7188;56.070;12.698;2023-05-10T09:12:41;4.63;;;2.67;;
14209;SDS011;7188;56.070;12.698;2023-05-10T09:15:09;4.88;;;2.67;;
14209;SDS011;7188;56.070;12.698;2023-05-10T09:17:35;4.68;;;2.67;;
14209;SDS011;7188;56.070;12.698;2023-05-10T09:20:02;4.15;;;2.75;;
14209;SDS011;7188;56.070;12.698;2023-05-10T09:22:32;5.20;;;3.25;;
14209;SDS011;7188;56.070;12.698;2023-05-10T09:25:08;4.95;;;2.40;;
14209;SDS011;7188;56.070;12.698;2023-05-10T09:27:38;3.25;;;2.53;;
14209;SDS011;7188;56.070;12.698;2023-05-10T09:30:05;7.35;;;2.38;;
14209;SDS011;7188;56.070;12.698;2023-05-10T09:32:42;7.65;;;2.60;;
14209;SDS011;7188;56.070;12.698;2023-05-10T09:37:39;5.30;;;2.50;;
14209;SDS011;7188;56.070;12.698;2023-05-10T09:40:15;5.40;;;2.60;;
14209;SDS011;7188;56.070;12.698;2023-05-10T09:42:43;6.28;;;2.85;;
14209;SDS011;7188;56.070;12.698;2023-05-10T09:45:16;3.00;;;2.72;;
14209;SDS011;7188;56.070;12.698;2023-05-10T09:47:42;2.83;;;2.47;;
14209;SDS011;7188;56.070;12.698;2023-05-10T09:50:09;3.75;;;2.65;;
14209;SDS011;7188;56.070;12.698;2023-05-10T09:55:23;4.47;;;2.60;;
14209;SDS011;7188;56.070;12.698;2023-05-10T09:58:04;3.80;;;2.63;;
14209;SDS011;7188;56.070;12.698;2023-05-10T10:03:22;3.15;;;2.25;;
14209;SDS011;7188;56.070;12.698;2023-05-10T10:05:49;3.72;;;2.30;;
14209;SDS011;7188;56.070;12.698;2023-05-10T10:08:15;4.22;;;2.22;;
14209;SDS011;7188;56.070;12.698;2023-05-10T10:10:41;3.85;;;2.08;;
14209;SDS011;7188;56.070;12.698;2023-05-10T10:13:10;7.80;;;2.50;;
14209;SDS011;7188;56.070;12.698;2023-05-10T10:15:35;4.82;;;2.30;;
14209;SDS011;7188;56.070;12.698;2023-05-10T10:18:01;6.68;;;2.17;;
14209;SDS011;7188;56.070;12.698;2023-05-10T10:20:29;5.03;;;2.50;;
14209;SDS011;7188;56.070;12.698;2023-05-10T10:22:54;9.65;;;2.40;;
14209;SDS011;7188;56.070;12.698;2023-05-10T10:25:20;7.57;;;2.45;;
14209;SDS011;7188;56.070;12.698;2023-05-10T10:35:32;3.47;;;2.20;;
14209;SDS011;7188;56.070;12.698;2023-05-10T10:37:59;4.53;;;2.10;;
14209;SDS011;7188;56.070;12.698;2023-05-10T10:40:29;7.22;;;2.03;;
14209;SDS011;7188;56.070;12.698;2023-05-10T10:42:57;3.13;;;1.55;;
14209;SDS011;7188;56.070;12.698;2023-05-10T10:45:23;3.53;;;1.77;;
14209;SDS011;7188;56.070;12.698;2023-05-10T10:50:47;6.13;;;1.95;;
14209;SDS011;7188;56.070;12.698;2023-05-10T10:53:20;14.13;;;2.53;;
14209;SDS011;7188;56.070;12.698;2023-05-10T10:55:47;4.95;;;1.60;;
14209;SDS011;7188;56.070;12.698;2023-05-10T10:58:29;5.28;;;1.73;;
14209;SDS011;7188;56.070;12.698;2023-05-10T11:01:10;5.38;;;1.60;;
14209;SDS011;7188;56.070;12.698;2023-05-10T11:03:40;3.90;;;1.70;;
14209;SDS011;7188;56.070;12.698;2023-05-10T11:06:06;3.30;;;1.92;;
14209;SDS011;7188;56.070;12.698;2023-05-10T11:08:34;3.83;;;1.60;;
14209;SDS011;7188;56.070;12.698;2023-05-10T11:11:08;4.35;;;1.50;;
14209;SDS011;7188;56.070;12.698;2023-05-10T11:13:41;7.18;;;1.58;;
14209;SDS011;7188;56.070;12.698;2023-05-10T11:16:18;2.63;;;1.42;;
14209;SDS011;7188;56.070;12.698;2023-05-10T11:18:58;6.10;;;1.50;;
14209;SDS011;7188;56.070;12.698;2023-05-10T11:21:27;2.65;;;1.70;;
14209;SDS011;7188;56.070;12.698;2023-05-10T11:23:55;8.07;;;1.42;;
14209;SDS011;7188;56.070;12.698;2023-05-10T11:26:23;1.30;;;1.20;;
14209;SDS011;7188;56.070;12.698;2023-05-10T11:28:50;5.63;;;1.38;;
14209;SDS011;7188;56.070;12.698;2023-05-10T11:31:25;3.65;;;1.40;;
14209;SDS011;7188;56.070;12.698;2023-05-10T11:33:55;6.32;;;1.50;;
14209;SDS011;7188;56.070;12.698;2023-05-10T11:36:25;4.28;;;1.30;;
14209;SDS011;7188;56.070;12.698;2023-05-10T11:38:58;1.27;;;1.08;;
14209;SDS011;7188;56.070;12.698;2023-05-10T11:41:24;4.53;;;1.70;;
14209;SDS011;7188;56.070;12.698;2023-05-10T11:43:52;14.52;;;1.83;;
14209;SDS011;7188;56.070;12.698;2023-05-10T11:46:22;2.65;;;1.40;;
14209;SDS011;7188;56.070;12.698;2023-05-10T11:48:49;2.22;;;1.35;;
14209;SDS011;7188;56.070;12.698;2023-05-10T11:51:21;2.85;;;1.40;;
14209;SDS011;7188;56.070;12.698;2023-05-10T11:53:48;3.08;;;1.58;;
14209;SDS011;7188;56.070;12.698;2023-05-10T11:56:15;3.63;;;1.17;;
14209;SDS011;7188;56.070;12.698;2023-05-10T11:58:41;2.05;;;1.10;;
14209;SDS011;7188;56.070;12.698;2023-05-10T12:01:07;4.30;;;1.63;;
14209;SDS011;7188;56.070;12.698;2023-05-10T12:03:34;2.30;;;1.00;;
14209;SDS011;7188;56.070;12.698;2023-05-10T12:06:00;4.30;;;1.17;;
14209;SDS011;7188;56.070;12.698;2023-05-10T12:08:27;2.97;;;1.10;;
14209;SDS011;7188;56.070;12.698;2023-05-10T12:10:54;1.13;;;1.00;;
14209;SDS011;7188;56.070;12.698;2023-05-10T12:13:37;4.13;;;1.17;;
14209;SDS011;7188;56.070;12.698;2023-05-10T12:16:18;3.45;;;0.95;;
14209;SDS011;7188;56.070;12.698;2023-05-10T12:18:48;5.95;;;1.15;;
14209;SDS011;7188;56.070;12.698;2023-05-10T12:21:14;1.13;;;1.13;;
14209;SDS011;7188;56.070;12.698;2023-05-10T12:23:40;2.03;;;1.25;;
14209;SDS011;7188;56.070;12.698;2023-05-10T12:26:09;2.67;;;0.73;;
14209;SDS011;7188;56.070;12.698;2023-05-10T12:28:35;7.55;;;1.20;;
14209;SDS011;7188;56.070;12.698;2023-05-10T12:31:01;5.45;;;1.13;;
14209;SDS011;7188;56.070;12.698;2023-05-10T12:33:34;2.58;;;1.08;;
14209;SDS011;7188;56.070;12.698;2023-05-10T12:36:03;4.50;;;0.95;;
14209;SDS011;7188;56.070;12.698;2023-05-10T12:40:59;7.05;;;1.00;;
14209;SDS011;7188;56.070;12.698;2023-05-10T12:43:26;5.35;;;0.90;;
14209;SDS011;7188;56.070;12.698;2023-05-10T12:45:52;3.63;;;1.10;;
14209;SDS011;7188;56.070;12.698;2023-05-10T12:48:21;4.57;;;1.00;;
14209;SDS011;7188;56.070;12.698;2023-05-10T12:50:47;3.35;;;1.30;;
14209;SDS011;7188;56.070;12.698;2023-05-10T12:53:14;3.13;;;1.02;;
14209;SDS011;7188;56.070;12.698;2023-05-10T12:55:43;5.05;;;1.05;;
14209;SDS011;7188;56.070;12.698;2023-05-10T12:58:09;8.77;;;1.70;;
14209;SDS011;7188;56.070;12.698;2023-05-10T13:00:35;3.55;;;1.10;;
14209;SDS011;7188;56.070;12.698;2023-05-10T13:03:03;2.35;;;1.23;;
14209;SDS011;7188;56.070;12.698;2023-05-10T13:05:34;4.45;;;1.30;;
14209;SDS011;7188;56.070;12.698;2023-05-10T13:08:00;3.63;;;1.20;;
14209;SDS011;7188;56.070;12.698;2023-05-10T13:10:26;2.85;;;1.33;;
14209;SDS011;7188;56.070;12.698;2023-05-10T13:12:51;2.10;;;1.20;;
14209;SDS011;7188;56.070;12.698;2023-05-10T13:15:17;2.65;;;1.20;;
14209;SDS011;7188;56.070;12.698;2023-05-10T13:17:42;2.97;;;1.45;;
14209;SDS011;7188;56.070;12.698;2023-05-10T13:20:10;2.78;;;1.10;;
14209;SDS011;7188;56.070;12.698;2023-05-10T13:22:36;1.95;;;1.30;;
14209;SDS011;7188;56.070;12.698;2023-05-10T13:25:01;3.10;;;1.02;;
14209;SDS011;7188;56.070;12.698;2023-05-10T13:27:27;6.18;;;1.00;;
14209;SDS011;7188;56.070;12.698;2023-05-10T13:29:53;5.95;;;1.25;;
14209;SDS011;7188;56.070;12.698;2023-05-10T13:32:20;6.03;;;1.33;;
14209;SDS011;7188;56.070;12.698;2023-05-10T13:34:45;4.63;;;1.33;;
14209;SDS011;7188;56.070;12.698;2023-05-10T13:37:11;1.85;;;1.10;;
14209;SDS011;7188;56.070;12.698;2023-05-10T13:39:37;9.00;;;1.33;;
14209;SDS011;7188;56.070;12.698;2023-05-10T13:42:03;1.73;;;1.00;;
14209;SDS011;7188;56.070;12.698;2023-05-10T13:44:29;0.98;;;0.98;;
14209;SDS011;7188;56.070;12.698;2023-05-10T13:46:55;6.47;;;1.35;;
14209;SDS011;7188;56.070;12.698;2023-05-10T13:49:21;2.30;;;1.00;;
14209;SDS011;7188;56.070;12.698;2023-05-10T13:51:47;2.90;;;1.08;;
14209;SDS011;7188;56.070;12.698;2023-05-10T13:54:13;2.50;;;1.10;;
14209;SDS011;7188;56.070;12.698;2023-05-10T13:56:39;4.80;;;1.00;;
14209;SDS011;7188;56.070;12.698;2023-05-10T13:59:08;5.28;;;1.20;;
14209;SDS011;7188;56.070;12.698;2023-05-10T14:01:34;0.93;;;0.93;;
14209;SDS011;7188;56.070;12.698;2023-05-10T14:04:00;2.38;;;1.00;;
14209;SDS011;7188;56.070;12.698;2023-05-10T14:06:25;4.50;;;1.25;;
14209;SDS011;7188;56.070;12.698;2023-05-10T14:08:52;4.35;;;1.10;;
14209;SDS011;7188;56.070;12.698;2023-05-10T14:11:18;4.70;;;1.20;;
14209;SDS011;7188;56.070;12.698;2023-05-10T14:13:45;1.45;;;0.98;;
14209;SDS011;7188;56.070;12.698;2023-05-10T14:16:10;3.90;;;1.02;;
14209;SDS011;7188;56.070;12.698;2023-05-10T14:18:36;4.00;;;1.38;;
14209;SDS011;7188;56.070;12.698;2023-05-10T14:21:02;3.20;;;1.48;;
14209;SDS011;7188;56.070;12.698;2023-05-10T14:23:28;1.02;;;0.93;;
14209;SDS011;7188;56.070;12.698;2023-05-10T14:25:55;2.13;;;1.25;;
14209;SDS011;7188;56.070;12.698;2023-05-10T14:28:21;4.22;;;1.20;;
14209;SDS011;7188;56.070;12.698;2023-05-10T14:30:47;1.58;;;1.17;;
14209;SDS011;7188;56.070;12.698;2023-05-10T14:33:13;3.17;;;0.98;;
14209;SDS011;7188;56.070;12.698;2023-05-10T14:35:39;1.30;;;0.93;;
14209;SDS011;7188;56.070;12.698;2023-05-10T14:38:05;7.25;;;1.17;;
14209;SDS011;7188;56.070;12.698;2023-05-10T14:40:31;3.03;;;1.02;;
14209;SDS011;7188;56.070;12.698;2023-05-10T14:42:56;21.92;;;2.28;;
14209;SDS011;7188;56.070;12.698;2023-05-10T14:45:22;2.88;;;1.20;;
14209;SDS011;7188;56.070;12.698;2023-05-10T14:47:49;3.85;;;1.25;;
14209;SDS011;7188;56.070;12.698;2023-05-10T14:50:15;4.18;;;1.20;;
14209;SDS011;7188;56.070;12.698;2023-05-10T14:52:42;4.65;;;1.50;;
14209;SDS011;7188;56.070;12.698;2023-05-10T14:55:09;1.85;;;0.90;;
14209;SDS011;7188;56.070;12.698;2023-05-10T14:57:34;3.15;;;1.30;;
14209;SDS011;7188;56.070;12.698;2023-05-10T15:00:00;4.55;;;1.55;;
14209;SDS011;7188;56.070;12.698;2023-05-10T15:02:27;3.65;;;1.38;;
14209;SDS011;7188;56.070;12.698;2023-05-10T15:04:53;4.82;;;1.00;;
14209;SDS011;7188;56.070;12.698;2023-05-10T15:07:18;2.75;;;1.13;;
14209;SDS011;7188;56.070;12.698;2023-05-10T15:09:44;7.47;;;1.17;;
14209;SDS011;7188;56.070;12.698;2023-05-10T15:12:10;1.88;;;1.38;;
14209;SDS011;7188;56.070;12.698;2023-05-10T15:14:36;6.30;;;1.98;;
14209;SDS011;7188;56.070;12.698;2023-05-10T15:17:02;2.72;;;1.05;;
14209;SDS011;7188;56.070;12.698;2023-05-10T15:19:27;2.60;;;1.30;;
14209;SDS011;7188;56.070;12.698;2023-05-10T15:21:54;5.25;;;1.00;;
14209;SDS011;7188;56.070;12.698;2023-05-10T15:24:20;2.88;;;1.20;;
14209;SDS011;7188;56.070;12.698;2023-05-10T15:26:46;1.48;;;1.05;;
14209;SDS011;7188;56.070;12.698;2023-05-10T15:29:12;1.17;;;1.08;;
14209;SDS011;7188;56.070;12.698;2023-05-10T15:31:44;1.35;;;1.02;;
14209;SDS011;7188;56.070;12.698;2023-05-10T15:34:10;3.90;;;0.80;;
14209;SDS011;7188;56.070;12.698;2023-05-10T15:36:36;3.30;;;0.90;;